sensor_id;sensor_type;location;lat;lon;timestamp;pressure;altitude;pressure_sealevel;temperature;humidity
48810;BME280;40070;47.322;18.784;2023-02-28T00:01:28;1014.09;;;3.25;48.52
48810;BME280;40070;47.322;18.784;2023-02-28T00:03:31;1014.09;;;3.27;48.78
48810;BME280;40070;47.322;18.784;2023-02-28T00:05:33;1014.12;;;3.42;48.16
48810;BME280;40070;47.322;18.784;2023-02-28T00:07:36;1014.11;;;3.55;48.19
48810;BME280;40070;47.322;18.784;2023-02-28T00:09:38;1014.15;;;3.38;48.84
48810;BME280;40070;47.322;18.784;2023-02-28T00:11:41;1014.15;;;3.45;49.06
48810;BME280;40070;47.322;18.784;2023-02-28T00:13:44;1014.14;;;3.57;48.44
48810;BME280;40070;47.322;18.784;2023-02-28T00:15:47;1014.19;;;3.60;48.48
48810;BME280;40070;47.322;18.784;2023-02-28T00:17:49;1014.19;;;3.59;48.63
48810;BME280;40070;47.322;18.784;2023-02-28T00:19:51;1014.21;;;3.60;47.04
48810;BME280;40070;47.322;18.784;2023-02-28T00:21:54;1014.26;;;3.55;48.08
48810;BME280;40070;47.322;18.784;2023-02-28T00:23:56;1014.26;;;3.49;48.18
48810;BME280;40070;47.322;18.784;2023-02-28T00:25:59;1014.25;;;3.49;48.85
48810;BME280;40070;47.322;18.784;2023-02-28T00:28:01;1014.33;;;3.51;49.08
48810;BME280;40070;47.322;18.784;2023-02-28T00:30:04;1014.35;;;3.36;49.61
48810;BME280;40070;47.322;18.784;2023-02-28T00:32:07;1014.35;;;3.40;49.51
48810;BME280;40070;47.322;18.784;2023-02-28T00:34:09;1014.36;;;3.46;49.42
48810;BME280;40070;47.322;18.784;2023-02-28T00:36:12;1014.37;;;3.52;49.49
48810;BME280;40070;47.322;18.784;2023-02-28T00:38:14;1014.41;;;3.46;49.63
48810;BME280;40070;47.322;18.784;2023-02-28T00:40:17;1014.39;;;3.46;49.57
48810;BME280;40070;47.322;18.784;2023-02-28T00:42:19;1014.41;;;3.62;49.14
48810;BME280;40070;47.322;18.784;2023-02-28T00:44:21;1014.39;;;3.41;47.75
48810;BME280;40070;47.322;18.784;2023-02-28T00:46:24;1014.39;;;3.43;48.78
48810;BME280;40070;47.322;18.784;2023-02-28T00:48:26;1014.40;;;3.49;49.35
48810;BME280;40070;47.322;18.784;2023-02-28T00:50:29;1014.40;;;3.55;49.02
48810;BME280;40070;47.322;18.784;2023-02-28T00:52:31;1014.39;;;3.58;48.55
48810;BME280;40070;47.322;18.784;2023-02-28T00:54:33;1014.41;;;3.49;48.07
48810;BME280;40070;47.322;18.784;2023-02-28T00:56:36;1014.39;;;3.73;47.44
48810;BME280;40070;47.322;18.784;2023-02-28T00:58:38;1014.41;;;3.66;47.87
48810;BME280;40070;47.322;18.784;2023-02-28T01:00:40;1014.40;;;3.65;48.41
48810;BME280;40070;47.322;18.784;2023-02-28T01:02:43;1014.38;;;3.57;47.73
48810;BME280;40070;47.322;18.784;2023-02-28T01:04:45;1014.35;;;3.71;47.50
48810;BME280;40070;47.322;18.784;2023-02-28T01:06:48;1014.33;;;3.72;47.63
48810;BME280;40070;47.322;18.784;2023-02-28T01:08:50;1014.37;;;3.47;47.83
48810;BME280;40070;47.322;18.784;2023-02-28T01:10:52;1014.32;;;3.67;47.65
48810;BME280;40070;47.322;18.784;2023-02-28T01:12:55;1014.33;;;3.81;47.11
48810;BME280;40070;47.322;18.784;2023-02-28T01:14:57;1014.36;;;3.83;47.30
48810;BME280;40070;47.322;18.784;2023-02-28T01:16:59;1014.41;;;3.60;48.46
48810;BME280;40070;47.322;18.784;2023-02-28T01:19:02;1014.40;;;3.47;48.76
48810;BME280;40070;47.322;18.784;2023-02-28T01:21:09;1014.39;;;3.59;48.75
48810;BME280;40070;47.322;18.784;2023-02-28T01:23:11;1014.34;;;3.81;48.89
48810;BME280;40070;47.322;18.784;2023-02-28T01:25:14;1014.34;;;3.79;49.89
48810;BME280;40070;47.322;18.784;2023-02-28T01:27:16;1014.32;;;3.91;48.96
48810;BME280;40070;47.322;18.784;2023-02-28T01:29:18;1014.31;;;3.86;48.71
48810;BME280;40070;47.322;18.784;2023-02-28T01:31:21;1014.32;;;3.82;48.71
48810;BME280;40070;47.322;18.784;2023-02-28T01:33:24;1014.31;;;3.74;49.23
48810;BME280;40070;47.322;18.784;2023-02-28T01:35:26;1014.35;;;3.55;50.03
48810;BME280;40070;47.322;18.784;2023-02-28T01:37:28;1014.31;;;3.58;49.46
48810;BME280;40070;47.322;18.784;2023-02-28T01:39:31;1014.36;;;3.57;49.80
48810;BME280;40070;47.322;18.784;2023-02-28T01:41:34;1014.41;;;3.66;49.73
48810;BME280;40070;47.322;18.784;2023-02-28T01:45:57;1014.35;;;3.82;49.71
48810;BME280;40070;47.322;18.784;2023-02-28T01:48:01;1014.37;;;3.82;49.39
48810;BME280;40070;47.322;18.784;2023-02-28T01:50:06;1014.44;;;3.68;49.69
48810;BME280;40070;47.322;18.784;2023-02-28T01:52:10;1014.44;;;3.69;50.37
48810;BME280;40070;47.322;18.784;2023-02-28T01:54:15;1014.35;;;3.69;51.39
48810;BME280;40070;47.322;18.784;2023-02-28T01:56:19;1014.34;;;3.62;51.14
48810;BME280;40070;47.322;18.784;2023-02-28T01:58:22;1014.34;;;3.49;50.50
48810;BME280;40070;47.322;18.784;2023-02-28T02:00:25;1014.32;;;3.56;50.79
48810;BME280;40070;47.322;18.784;2023-02-28T02:02:28;1014.28;;;3.43;50.50
48810;BME280;40070;47.322;18.784;2023-02-28T02:04:50;1014.32;;;3.50;51.04
48810;BME280;40070;47.322;18.784;2023-02-28T02:06:48;1014.32;;;3.55;51.51
48810;BME280;40070;47.322;18.784;2023-02-28T02:08:50;1014.29;;;3.64;51.47
48810;BME280;40070;47.322;18.784;2023-02-28T02:10:57;1014.24;;;3.69;51.08
48810;BME280;40070;47.322;18.784;2023-02-28T02:13:05;1014.28;;;3.52;50.45
48810;BME280;40070;47.322;18.784;2023-02-28T02:15:19;1014.25;;;3.60;50.71
48810;BME280;40070;47.322;18.784;2023-02-28T02:17:28;1014.28;;;3.66;51.25
48810;BME280;40070;47.322;18.784;2023-02-28T02:29:11;1014.29;;;3.71;49.62
48810;BME280;40070;47.322;18.784;2023-02-28T02:31:18;1014.26;;;3.70;50.57
48810;BME280;40070;47.322;18.784;2023-02-28T02:35:54;1014.32;;;3.68;51.54
48810;BME280;40070;47.322;18.784;2023-02-28T02:38:09;1014.25;;;3.74;50.06
48810;BME280;40070;47.322;18.784;2023-02-28T02:40:14;1014.22;;;3.76;49.32
48810;BME280;40070;47.322;18.784;2023-02-28T02:42:28;1014.22;;;3.77;49.74
48810;BME280;40070;47.322;18.784;2023-02-28T02:44:34;1014.25;;;3.67;49.91
48810;BME280;40070;47.322;18.784;2023-02-28T02:46:43;1014.21;;;3.78;49.97
48810;BME280;40070;47.322;18.784;2023-02-28T02:48:46;1014.19;;;3.70;50.17
48810;BME280;40070;47.322;18.784;2023-02-28T02:50:51;1014.24;;;3.70;50.40
48810;BME280;40070;47.322;18.784;2023-02-28T02:52:55;1014.28;;;3.79;50.61
48810;BME280;40070;47.322;18.784;2023-02-28T02:54:59;1014.33;;;3.82;50.46
48810;BME280;40070;47.322;18.784;2023-02-28T02:57:07;1014.35;;;3.87;50.28
48810;BME280;40070;47.322;18.784;2023-02-28T02:59:11;1014.31;;;3.74;50.53
48810;BME280;40070;47.322;18.784;2023-02-28T03:01:16;1014.29;;;3.81;51.67
48810;BME280;40070;47.322;18.784;2023-02-28T03:03:20;1014.32;;;3.78;51.42
48810;BME280;40070;47.322;18.784;2023-02-28T03:05:25;1014.36;;;3.66;51.62
48810;BME280;40070;47.322;18.784;2023-02-28T03:07:28;1014.35;;;3.81;51.77
48810;BME280;40070;47.322;18.784;2023-02-28T03:09:32;1014.37;;;3.70;51.30
48810;BME280;40070;47.322;18.784;2023-02-28T03:11:35;1014.36;;;3.46;51.48
48810;BME280;40070;47.322;18.784;2023-02-28T03:13:48;1014.34;;;3.40;51.91
48810;BME280;40070;47.322;18.784;2023-02-28T03:20:54;1014.31;;;3.80;50.98
48810;BME280;40070;47.322;18.784;2023-02-28T03:23:13;1014.37;;;3.75;51.06
48810;BME280;40070;47.322;18.784;2023-02-28T03:27:45;1014.37;;;3.77;51.32
48810;BME280;40070;47.322;18.784;2023-02-28T03:30:01;1014.32;;;3.77;51.21
48810;BME280;40070;47.322;18.784;2023-02-28T03:32:11;1014.28;;;3.77;51.52
48810;BME280;40070;47.322;18.784;2023-02-28T03:34:29;1014.29;;;3.76;51.70
48810;BME280;40070;47.322;18.784;2023-02-28T03:36:35;1014.30;;;3.86;51.22
48810;BME280;40070;47.322;18.784;2023-02-28T03:38:46;1014.33;;;3.60;51.80
48810;BME280;40070;47.322;18.784;2023-02-28T03:41:35;1014.35;;;3.50;52.12
48810;BME280;40070;47.322;18.784;2023-02-28T03:43:09;1014.38;;;3.66;51.98
48810;BME280;40070;47.322;18.784;2023-02-28T03:45:16;1014.34;;;3.72;51.96
48810;BME280;40070;47.322;18.784;2023-02-28T03:47:32;1014.33;;;3.72;51.87
48810;BME280;40070;47.322;18.784;2023-02-28T03:49:46;1014.27;;;3.81;52.25
48810;BME280;40070;47.322;18.784;2023-02-28T03:51:51;1014.30;;;3.57;52.66
48810;BME280;40070;47.322;18.784;2023-02-28T03:53:56;1014.29;;;3.58;52.94
48810;BME280;40070;47.322;18.784;2023-02-28T03:56:21;1014.31;;;3.76;51.98
48810;BME280;40070;47.322;18.784;2023-02-28T03:58:15;1014.31;;;3.79;51.43
48810;BME280;40070;47.322;18.784;2023-02-28T04:00:27;1014.29;;;3.86;51.29
48810;BME280;40070;47.322;18.784;2023-02-28T04:02:32;1014.28;;;3.85;51.44
48810;BME280;40070;47.322;18.784;2023-02-28T04:04:34;1014.29;;;3.80;51.13
48810;BME280;40070;47.322;18.784;2023-02-28T04:06:37;1014.27;;;3.70;51.81
48810;BME280;40070;47.322;18.784;2023-02-28T04:08:39;1014.32;;;3.21;53.01
48810;BME280;40070;47.322;18.784;2023-02-28T04:10:42;1014.36;;;2.88;53.81
48810;BME280;40070;47.322;18.784;2023-02-28T04:12:45;1014.34;;;2.72;54.69
48810;BME280;40070;47.322;18.784;2023-02-28T04:14:47;1014.36;;;2.70;54.87
48810;BME280;40070;47.322;18.784;2023-02-28T04:16:50;1014.36;;;2.99;54.44
48810;BME280;40070;47.322;18.784;2023-02-28T04:18:52;1014.37;;;3.05;54.07
48810;BME280;40070;47.322;18.784;2023-02-28T04:20:54;1014.35;;;2.91;54.39
48810;BME280;40070;47.322;18.784;2023-02-28T04:22:57;1014.35;;;3.18;53.38
48810;BME280;40070;47.322;18.784;2023-02-28T04:24:59;1014.34;;;3.40;53.13
48810;BME280;40070;47.322;18.784;2023-02-28T04:27:01;1014.30;;;3.37;52.78
48810;BME280;40070;47.322;18.784;2023-02-28T04:29:04;1014.32;;;3.47;52.41
48810;BME280;40070;47.322;18.784;2023-02-28T04:31:08;1014.34;;;3.51;53.53
48810;BME280;40070;47.322;18.784;2023-02-28T04:33:11;1014.31;;;3.56;53.50
48810;BME280;40070;47.322;18.784;2023-02-28T04:35:13;1014.30;;;3.60;53.37
48810;BME280;40070;47.322;18.784;2023-02-28T04:37:15;1014.29;;;3.54;53.10
48810;BME280;40070;47.322;18.784;2023-02-28T04:39:18;1014.28;;;3.71;53.52
48810;BME280;40070;47.322;18.784;2023-02-28T04:41:20;1014.27;;;3.78;53.01
48810;BME280;40070;47.322;18.784;2023-02-28T04:43:23;1014.28;;;3.74;53.11
48810;BME280;40070;47.322;18.784;2023-02-28T04:45:25;1014.26;;;3.72;52.29
48810;BME280;40070;47.322;18.784;2023-02-28T04:47:27;1014.25;;;3.74;52.25
48810;BME280;40070;47.322;18.784;2023-02-28T04:49:30;1014.25;;;3.70;52.02
48810;BME280;40070;47.322;18.784;2023-02-28T04:51:32;1014.25;;;3.80;52.38
48810;BME280;40070;47.322;18.784;2023-02-28T04:53:35;1014.31;;;3.47;52.89
48810;BME280;40070;47.322;18.784;2023-02-28T04:55:37;1014.37;;;3.49;53.58
48810;BME280;40070;47.322;18.784;2023-02-28T04:57:40;1014.35;;;3.68;53.50
48810;BME280;40070;47.322;18.784;2023-02-28T04:59:42;1014.41;;;3.79;53.09
48810;BME280;40070;47.322;18.784;2023-02-28T05:01:45;1014.42;;;3.68;53.95
48810;BME280;40070;47.322;18.784;2023-02-28T05:03:48;1014.38;;;3.71;53.73
48810;BME280;40070;47.322;18.784;2023-02-28T05:05:50;1014.41;;;3.71;53.88
48810;BME280;40070;47.322;18.784;2023-02-28T05:07:53;1014.35;;;3.67;53.87
48810;BME280;40070;47.322;18.784;2023-02-28T05:09:55;1014.34;;;3.66;53.71
48810;BME280;40070;47.322;18.784;2023-02-28T05:11:57;1014.30;;;3.58;54.01
48810;BME280;40070;47.322;18.784;2023-02-28T05:14:00;1014.27;;;3.71;53.53
48810;BME280;40070;47.322;18.784;2023-02-28T05:16:03;1014.28;;;3.71;53.31
48810;BME280;40070;47.322;18.784;2023-02-28T05:18:05;1014.29;;;3.67;54.04
48810;BME280;40070;47.322;18.784;2023-02-28T05:20:08;1014.33;;;3.46;54.35
48810;BME280;40070;47.322;18.784;2023-02-28T05:22:14;1014.34;;;3.69;53.58
48810;BME280;40070;47.322;18.784;2023-02-28T05:24:17;1014.32;;;3.44;54.02
48810;BME280;40070;47.322;18.784;2023-02-28T05:26:19;1014.34;;;3.38;54.09
48810;BME280;40070;47.322;18.784;2023-02-28T05:28:22;1014.35;;;3.42;53.56
48810;BME280;40070;47.322;18.784;2023-02-28T05:30:24;1014.39;;;3.55;53.41
48810;BME280;40070;47.322;18.784;2023-02-28T05:32:26;1014.41;;;3.63;53.50
48810;BME280;40070;47.322;18.784;2023-02-28T05:34:29;1014.46;;;3.68;53.44
48810;BME280;40070;47.322;18.784;2023-02-28T05:36:31;1014.49;;;3.75;53.18
48810;BME280;40070;47.322;18.784;2023-02-28T05:38:34;1014.56;;;3.74;53.45
48810;BME280;40070;47.322;18.784;2023-02-28T05:40:37;1014.57;;;3.60;53.51
48810;BME280;40070;47.322;18.784;2023-02-28T05:42:40;1014.58;;;3.89;53.21
48810;BME280;40070;47.322;18.784;2023-02-28T05:44:42;1014.67;;;3.81;53.46
48810;BME280;40070;47.322;18.784;2023-02-28T05:46:44;1014.70;;;3.77;54.09
48810;BME280;40070;47.322;18.784;2023-02-28T05:48:47;1014.58;;;3.91;53.06
48810;BME280;40070;47.322;18.784;2023-02-28T05:50:50;1014.63;;;3.88;53.17
48810;BME280;40070;47.322;18.784;2023-02-28T05:52:52;1014.63;;;3.73;53.10
48810;BME280;40070;47.322;18.784;2023-02-28T05:54:54;1014.58;;;3.94;52.50
48810;BME280;40070;47.322;18.784;2023-02-28T05:56:57;1014.58;;;3.93;52.48
48810;BME280;40070;47.322;18.784;2023-02-28T05:58:59;1014.58;;;3.93;52.38
48810;BME280;40070;47.322;18.784;2023-02-28T06:01:18;1014.59;;;3.89;52.63
48810;BME280;40070;47.322;18.784;2023-02-28T06:03:16;1014.66;;;3.75;53.09
48810;BME280;40070;47.322;18.784;2023-02-28T06:05:18;1014.67;;;3.57;53.91
48810;BME280;40070;47.322;18.784;2023-02-28T06:07:20;1014.67;;;3.33;54.40
48810;BME280;40070;47.322;18.784;2023-02-28T06:09:23;1014.64;;;3.27;54.20
48810;BME280;40070;47.322;18.784;2023-02-28T06:11:25;1014.71;;;2.96;55.02
48810;BME280;40070;47.322;18.784;2023-02-28T06:13:28;1014.73;;;3.02;54.94
48810;BME280;40070;47.322;18.784;2023-02-28T06:15:30;1014.65;;;3.23;54.33
48810;BME280;40070;47.322;18.784;2023-02-28T06:17:33;1014.68;;;3.24;54.01
48810;BME280;40070;47.322;18.784;2023-02-28T06:19:37;1014.73;;;3.03;54.13
48810;BME280;40070;47.322;18.784;2023-02-28T06:21:39;1014.71;;;3.14;54.07
48810;BME280;40070;47.322;18.784;2023-02-28T06:23:41;1014.76;;;2.84;54.41
48810;BME280;40070;47.322;18.784;2023-02-28T06:25:44;1014.75;;;2.86;54.71
48810;BME280;40070;47.322;18.784;2023-02-28T06:27:47;1014.85;;;3.11;54.11
48810;BME280;40070;47.322;18.784;2023-02-28T06:29:53;1014.82;;;3.25;53.62
48810;BME280;40070;47.322;18.784;2023-02-28T06:31:55;1014.84;;;3.16;53.99
48810;BME280;40070;47.322;18.784;2023-02-28T06:33:58;1014.81;;;3.17;53.87
48810;BME280;40070;47.322;18.784;2023-02-28T06:36:00;1014.87;;;3.06;53.54
48810;BME280;40070;47.322;18.784;2023-02-28T06:38:02;1014.80;;;3.16;53.23
48810;BME280;40070;47.322;18.784;2023-02-28T06:40:05;1014.86;;;3.12;53.62
48810;BME280;40070;47.322;18.784;2023-02-28T06:42:08;1014.87;;;3.24;53.42
48810;BME280;40070;47.322;18.784;2023-02-28T06:44:11;1014.83;;;3.30;52.44
48810;BME280;40070;47.322;18.784;2023-02-28T06:46:14;1014.85;;;2.95;53.74
48810;BME280;40070;47.322;18.784;2023-02-28T06:48:16;1014.84;;;3.30;53.04
48810;BME280;40070;47.322;18.784;2023-02-28T06:50:19;1014.89;;;3.40;53.20
48810;BME280;40070;47.322;18.784;2023-02-28T06:52:21;1014.88;;;3.16;53.53
48810;BME280;40070;47.322;18.784;2023-02-28T06:54:24;1014.85;;;3.10;52.97
48810;BME280;40070;47.322;18.784;2023-02-28T06:56:26;1014.90;;;3.15;53.17
48810;BME280;40070;47.322;18.784;2023-02-28T06:58:28;1014.90;;;3.31;53.20
48810;BME280;40070;47.322;18.784;2023-02-28T07:00:31;1014.92;;;3.18;52.76
48810;BME280;40070;47.322;18.784;2023-02-28T07:02:33;1014.91;;;3.46;52.39
48810;BME280;40070;47.322;18.784;2023-02-28T07:04:36;1014.96;;;3.52;52.17
48810;BME280;40070;47.322;18.784;2023-02-28T07:06:38;1015.02;;;3.49;52.24
48810;BME280;40070;47.322;18.784;2023-02-28T07:08:41;1015.03;;;3.86;51.58
48810;BME280;40070;47.322;18.784;2023-02-28T07:10:43;1015.03;;;3.83;50.49
48810;BME280;40070;47.322;18.784;2023-02-28T07:12:46;1015.05;;;3.81;49.49
48810;BME280;40070;47.322;18.784;2023-02-28T07:14:48;1015.02;;;4.13;48.93
48810;BME280;40070;47.322;18.784;2023-02-28T07:16:50;1015.01;;;4.05;48.47
48810;BME280;40070;47.322;18.784;2023-02-28T07:18:53;1015.01;;;3.94;49.56
48810;BME280;40070;47.322;18.784;2023-02-28T07:20:55;1014.99;;;4.44;48.33
48810;BME280;40070;47.322;18.784;2023-02-28T07:22:58;1015.01;;;4.19;48.37
48810;BME280;40070;47.322;18.784;2023-02-28T07:25:00;1015.07;;;3.75;48.11
48810;BME280;40070;47.322;18.784;2023-02-28T07:27:02;1015.11;;;3.44;47.80
48810;BME280;40070;47.322;18.784;2023-02-28T07:29:05;1015.15;;;3.32;47.61
48810;BME280;40070;47.322;18.784;2023-02-28T07:31:08;1015.18;;;3.69;47.44
48810;BME280;40070;47.322;18.784;2023-02-28T07:33:10;1015.16;;;3.63;47.78
48810;BME280;40070;47.322;18.784;2023-02-28T07:35:13;1015.14;;;3.50;48.17
48810;BME280;40070;47.322;18.784;2023-02-28T07:37:15;1015.20;;;3.86;47.44
48810;BME280;40070;47.322;18.784;2023-02-28T07:39:18;1015.23;;;3.89;46.95
48810;BME280;40070;47.322;18.784;2023-02-28T07:41:21;1015.26;;;4.25;46.56
48810;BME280;40070;47.322;18.784;2023-02-28T07:43:23;1015.30;;;4.21;46.18
48810;BME280;40070;47.322;18.784;2023-02-28T07:45:26;1015.27;;;4.35;45.33
48810;BME280;40070;47.322;18.784;2023-02-28T07:47:29;1015.30;;;4.21;45.88
48810;BME280;40070;47.322;18.784;2023-02-28T07:49:31;1015.30;;;4.03;45.90
48810;BME280;40070;47.322;18.784;2023-02-28T07:51:34;1015.22;;;4.32;45.20
48810;BME280;40070;47.322;18.784;2023-02-28T07:53:36;1015.23;;;4.23;45.96
48810;BME280;40070;47.322;18.784;2023-02-28T07:55:38;1015.17;;;4.61;44.17
48810;BME280;40070;47.322;18.784;2023-02-28T07:57:41;1015.13;;;4.73;44.19
48810;BME280;40070;47.322;18.784;2023-02-28T07:59:43;1015.10;;;4.66;44.17
48810;BME280;40070;47.322;18.784;2023-02-28T08:01:46;1015.08;;;4.85;43.68
48810;BME280;40070;47.322;18.784;2023-02-28T08:03:48;1015.04;;;4.72;44.44
48810;BME280;40070;47.322;18.784;2023-02-28T08:05:50;1015.06;;;4.95;43.48
48810;BME280;40070;47.322;18.784;2023-02-28T08:07:53;1015.05;;;4.81;44.08
48810;BME280;40070;47.322;18.784;2023-02-28T08:09:55;1015.07;;;5.15;42.95
48810;BME280;40070;47.322;18.784;2023-02-28T08:11:57;1015.03;;;5.22;42.51
48810;BME280;40070;47.322;18.784;2023-02-28T08:14:00;1015.01;;;5.40;42.32
48810;BME280;40070;47.322;18.784;2023-02-28T08:16:02;1015.04;;;5.50;42.35
48810;BME280;40070;47.322;18.784;2023-02-28T08:18:04;1015.08;;;5.76;41.78
48810;BME280;40070;47.322;18.784;2023-02-28T08:20:07;1015.02;;;6.05;41.33
48810;BME280;40070;47.322;18.784;2023-02-28T08:22:10;1015.03;;;6.30;41.46
48810;BME280;40070;47.322;18.784;2023-02-28T08:24:12;1015.08;;;5.88;42.35
48810;BME280;40070;47.322;18.784;2023-02-28T08:26:15;1015.11;;;5.40;42.79
48810;BME280;40070;47.322;18.784;2023-02-28T08:28:17;1015.06;;;5.37;42.75
48810;BME280;40070;47.322;18.784;2023-02-28T08:30:20;1015.12;;;5.40;43.29
48810;BME280;40070;47.322;18.784;2023-02-28T08:32:22;1015.04;;;5.15;43.15
48810;BME280;40070;47.322;18.784;2023-02-28T08:34:25;1015.07;;;5.74;42.77
48810;BME280;40070;47.322;18.784;2023-02-28T08:36:27;1015.01;;;6.07;41.61
48810;BME280;40070;47.322;18.784;2023-02-28T08:38:29;1015.06;;;5.76;43.01
48810;BME280;40070;47.322;18.784;2023-02-28T08:40:32;1015.04;;;5.91;42.49
48810;BME280;40070;47.322;18.784;2023-02-28T08:42:34;1015.02;;;6.02;42.00
48810;BME280;40070;47.322;18.784;2023-02-28T08:44:37;1015.03;;;5.96;41.90
48810;BME280;40070;47.322;18.784;2023-02-28T08:46:39;1015.02;;;5.84;42.24
48810;BME280;40070;47.322;18.784;2023-02-28T08:48:41;1015.11;;;5.96;42.53
48810;BME280;40070;47.322;18.784;2023-02-28T08:50:44;1015.11;;;6.28;41.65
48810;BME280;40070;47.322;18.784;2023-02-28T08:52:46;1015.11;;;5.89;41.86
48810;BME280;40070;47.322;18.784;2023-02-28T08:54:48;1015.07;;;6.23;41.71
48810;BME280;40070;47.322;18.784;2023-02-28T08:56:51;1015.10;;;6.46;41.13
48810;BME280;40070;47.322;18.784;2023-02-28T08:58:54;1015.13;;;6.23;40.93
48810;BME280;40070;47.322;18.784;2023-02-28T09:00:57;1015.12;;;6.29;41.44
48810;BME280;40070;47.322;18.784;2023-02-28T09:02:59;1015.08;;;6.25;41.54
48810;BME280;40070;47.322;18.784;2023-02-28T09:05:01;1015.07;;;6.14;41.97
48810;BME280;40070;47.322;18.784;2023-02-28T09:07:04;1015.14;;;5.92;42.20
48810;BME280;40070;47.322;18.784;2023-02-28T09:09:06;1015.07;;;5.83;42.81
48810;BME280;40070;47.322;18.784;2023-02-28T09:11:09;1015.03;;;6.29;41.75
48810;BME280;40070;47.322;18.784;2023-02-28T09:13:11;1015.01;;;6.31;41.12
48810;BME280;40070;47.322;18.784;2023-02-28T09:15:13;1014.94;;;6.89;40.28
48810;BME280;40070;47.322;18.784;2023-02-28T09:17:16;1014.97;;;7.00;40.66
48810;BME280;40070;47.322;18.784;2023-02-28T09:19:18;1014.95;;;7.41;39.38
48810;BME280;40070;47.322;18.784;2023-02-28T09:21:21;1014.94;;;7.01;39.48
48810;BME280;40070;47.322;18.784;2023-02-28T09:23:23;1014.97;;;6.60;40.78
48810;BME280;40070;47.322;18.784;2023-02-28T09:25:25;1014.97;;;6.72;40.85
48810;BME280;40070;47.322;18.784;2023-02-28T09:27:28;1015.01;;;7.30;39.47
48810;BME280;40070;47.322;18.784;2023-02-28T09:29:33;1015.01;;;7.14;39.30
48810;BME280;40070;47.322;18.784;2023-02-28T09:31:35;1015.03;;;7.22;40.00
48810;BME280;40070;47.322;18.784;2023-02-28T09:33:37;1015.02;;;7.39;39.18
48810;BME280;40070;47.322;18.784;2023-02-28T09:35:40;1015.06;;;7.06;40.02
48810;BME280;40070;47.322;18.784;2023-02-28T09:37:43;1015.06;;;7.30;40.23
48810;BME280;40070;47.322;18.784;2023-02-28T09:39:45;1014.99;;;7.35;39.40
48810;BME280;40070;47.322;18.784;2023-02-28T09:41:49;1014.98;;;7.46;38.95
48810;BME280;40070;47.322;18.784;2023-02-28T09:43:53;1015.00;;;7.17;39.84
48810;BME280;40070;47.322;18.784;2023-02-28T09:46:03;1014.98;;;7.73;38.95
48810;BME280;40070;47.322;18.784;2023-02-28T09:48:42;1014.92;;;7.75;38.23
48810;BME280;40070;47.322;18.784;2023-02-28T09:50:33;1014.82;;;8.17;38.61
48810;BME280;40070;47.322;18.784;2023-02-28T09:52:37;1014.80;;;8.08;37.73
48810;BME280;40070;47.322;18.784;2023-02-28T09:54:40;1014.86;;;7.96;38.23
48810;BME280;40070;47.322;18.784;2023-02-28T09:56:42;1014.78;;;8.25;37.94
48810;BME280;40070;47.322;18.784;2023-02-28T09:58:46;1014.82;;;7.85;37.83
48810;BME280;40070;47.322;18.784;2023-02-28T10:01:03;1014.82;;;7.60;38.87
48810;BME280;40070;47.322;18.784;2023-02-28T10:05:22;1014.72;;;8.06;38.29
48810;BME280;40070;47.322;18.784;2023-02-28T10:07:32;1014.73;;;8.52;37.43
48810;BME280;40070;47.322;18.784;2023-02-28T10:09:39;1014.75;;;8.48;38.17
48810;BME280;40070;47.322;18.784;2023-02-28T10:11:41;1014.71;;;8.65;37.87
48810;BME280;40070;47.322;18.784;2023-02-28T10:16:06;1014.71;;;8.86;37.28
48810;BME280;40070;47.322;18.784;2023-02-28T10:18:11;1014.71;;;9.04;37.08
48810;BME280;40070;47.322;18.784;2023-02-28T10:20:19;1014.71;;;9.34;36.27
48810;BME280;40070;47.322;18.784;2023-02-28T10:22:28;1014.72;;;9.12;36.26
48810;BME280;40070;47.322;18.784;2023-02-28T10:24:44;1014.72;;;9.32;35.70
48810;BME280;40070;47.322;18.784;2023-02-28T10:26:47;1014.76;;;9.27;36.54
48810;BME280;40070;47.322;18.784;2023-02-28T10:28:50;1014.73;;;8.45;37.54
48810;BME280;40070;47.322;18.784;2023-02-28T10:30:54;1014.76;;;8.10;37.78
48810;BME280;40070;47.322;18.784;2023-02-28T10:32:57;1014.73;;;8.07;37.67
48810;BME280;40070;47.322;18.784;2023-02-28T10:37:19;1014.64;;;8.16;38.25
48810;BME280;40070;47.322;18.784;2023-02-28T10:39:45;1014.70;;;8.16;39.46
48810;BME280;40070;47.322;18.784;2023-02-28T10:41:47;1014.67;;;7.97;39.57
48810;BME280;40070;47.322;18.784;2023-02-28T10:43:49;1014.70;;;7.59;40.56
48810;BME280;40070;47.322;18.784;2023-02-28T10:45:56;1014.63;;;7.82;40.20
48810;BME280;40070;47.322;18.784;2023-02-28T10:48:00;1014.65;;;7.86;40.32
48810;BME280;40070;47.322;18.784;2023-02-28T10:50:04;1014.57;;;8.33;40.11
48810;BME280;40070;47.322;18.784;2023-02-28T10:52:07;1014.59;;;8.69;38.54
48810;BME280;40070;47.322;18.784;2023-02-28T10:54:15;1014.51;;;9.01;37.53
48810;BME280;40070;47.322;18.784;2023-02-28T10:56:18;1014.48;;;9.43;37.38
48810;BME280;40070;47.322;18.784;2023-02-28T10:58:25;1014.48;;;9.66;36.12
48810;BME280;40070;47.322;18.784;2023-02-28T11:00:32;1014.45;;;9.43;36.72
48810;BME280;40070;47.322;18.784;2023-02-28T11:02:36;1014.44;;;9.29;36.95
48810;BME280;40070;47.322;18.784;2023-02-28T11:04:39;1014.44;;;9.39;36.65
48810;BME280;40070;47.322;18.784;2023-02-28T11:06:41;1014.44;;;9.70;36.22
48810;BME280;40070;47.322;18.784;2023-02-28T11:08:44;1014.44;;;9.70;36.38
48810;BME280;40070;47.322;18.784;2023-02-28T11:10:48;1014.45;;;9.34;36.81
48810;BME280;40070;47.322;18.784;2023-02-28T11:12:56;1014.43;;;9.12;37.21
48810;BME280;40070;47.322;18.784;2023-02-28T11:15:00;1014.41;;;9.67;36.07
48810;BME280;40070;47.322;18.784;2023-02-28T11:19:33;1014.41;;;9.79;35.59
48810;BME280;40070;47.322;18.784;2023-02-28T11:21:38;1014.43;;;10.10;35.31
48810;BME280;40070;47.322;18.784;2023-02-28T11:23:40;1014.42;;;9.67;35.94
48810;BME280;40070;47.322;18.784;2023-02-28T11:25:47;1014.38;;;9.49;35.82
48810;BME280;40070;47.322;18.784;2023-02-28T11:27:50;1014.36;;;9.45;36.44
48810;BME280;40070;47.322;18.784;2023-02-28T11:29:53;1014.40;;;9.24;36.85
48810;BME280;40070;47.322;18.784;2023-02-28T11:32:03;1014.37;;;8.97;37.36
48810;BME280;40070;47.322;18.784;2023-02-28T11:34:25;1014.39;;;8.71;38.40
48810;BME280;40070;47.322;18.784;2023-02-28T11:36:29;1014.37;;;8.86;38.14